Time;durP1;ratioP1;P1;durP2;ratioP2;P2;SDS_P1;SDS_P2;PMS_P1;PMS_P2;Temp;Humidity;BMP_temperature;BMP_pressure;BME280_temperature;BME280_humidity;BME280_pressure;Samples;Min_cycle;Max_cycle;Signal;HPM_P1;HPM_P2
2022/10/08 00:01:49;;;;;;;49.60;29.30;;;;;;;9.99;98.04;99080.36;215770;1278;24250;-76
2022/10/08 00:06:51;;;;;;;47.40;28.00;;;;;;;9.97;98.30;99078.41;215627;1274;22490;-76
2022/10/08 00:11:53;;;;;;;47.60;27.70;;;;;;;9.93;97.99;99073.88;215691;1282;22519;-76
2022/10/08 00:16:54;;;;;;;44.90;25.90;;;;;;;9.88;97.97;99069.57;215562;1281;23176;-76
2022/10/08 00:21:56;;;;;;;50.30;27.70;;;;;;;9.80;98.01;99065.69;215724;1302;22427;-76
2022/10/08 00:26:59;;;;;;;48.00;27.00;;;;;;;9.73;98.14;99062.41;215670;1281;25262;-76
2022/10/08 00:32:01;;;;;;;44.90;27.30;;;;;;;9.68;98.31;99059.34;215501;1297;22480;-76
2022/10/08 00:37:03;;;;;;;47.50;29.10;;;;;;;9.63;98.30;99058.86;215535;1277;24275;-76
2022/10/08 00:42:04;;;;;;;49.20;29.70;;;;;;;9.58;98.34;99051.52;215779;1302;25494;-78
2022/10/08 00:47:15;;;;;;;52.50;29.70;;;;;;;9.55;98.48;99045.44;215731;1274;22529;-76
2022/10/08 00:52:18;;;;;;;48.20;28.40;;;;;;;9.51;98.65;99038.50;215478;1302;24408;-76
2022/10/08 00:57:20;;;;;;;46.40;28.10;;;;;;;9.45;98.66;99029.27;215870;1280;25382;-76
2022/10/08 01:02:22;;;;;;;46.70;26.60;;;;;;;9.40;98.79;99024.50;215589;1282;22602;-75
2022/10/08 01:07:31;;;;;;;47.90;27.90;;;;;;;9.35;98.96;99018.63;215675;1287;24249;-76
2022/10/08 01:12:52;;;;;;;51.60;28.50;;;;;;;9.29;98.87;99008.76;215475;1287;22603;-76
2022/10/08 01:18:06;;;;;;;46.40;27.90;;;;;;;9.26;99.02;99005.19;215621;1303;24218;-76
2022/10/08 01:23:18;;;;;;;45.40;27.40;;;;;;;9.23;99.06;99005.05;215949;1274;22459;-75
2022/10/08 01:28:47;;;;;;;45.10;26.00;;;;;;;9.21;99.19;98997.77;215797;1302;24401;-76
2022/10/08 01:33:53;;;;;;;49.40;27.60;;;;;;;9.17;99.14;98995.34;215678;1274;22514;-76
2022/10/08 01:38:59;;;;;;;46.50;27.80;;;;;;;9.13;99.24;98995.88;215763;1302;22570;-77
2022/10/08 01:44:11;;;;;;;58.20;31.20;;;;;;;9.08;99.10;98994.30;215698;1282;22654;-78
2022/10/08 01:49:20;;;;;;;50.00;29.70;;;;;;;9.06;99.35;98995.73;215577;1282;22656;-76
2022/10/08 01:54:25;;;;;;;48.20;28.00;;;;;;;9.04;99.54;98995.22;215897;1277;25257;-76
2022/10/08 01:59:36;;;;;;;47.00;26.40;;;;;;;9.04;99.72;98994.77;215565;1302;22501;-76
2022/10/08 02:04:37;;;;;;;47.50;27.80;;;;;;;9.06;99.92;98996.96;215901;1282;25457;-77
2022/10/08 02:09:43;;;;;;;39.50;23.80;;;;;;;9.06;99.88;98999.16;215610;1282;110028;-77
2022/10/08 02:14:51;;;;;;;40.80;23.80;;;;;;;9.05;100.00;98995.68;215847;1282;22467;-76
2022/10/08 02:20:02;;;;;;;42.70;23.50;;;;;;;9.05;100.00;98989.71;215752;1302;24272;-77
2022/10/08 02:25:12;;;;;;;40.40;23.40;;;;;;;9.05;100.00;98985.42;215652;1277;24285;-76
2022/10/08 02:30:14;;;;;;;37.50;23.00;;;;;;;9.03;100.00;98985.86;215830;1302;25347;-77
2022/10/08 02:35:24;;;;;;;42.00;24.10;;;;;;;9.02;100.00;98986.15;215894;1277;26571;-77
2022/10/08 02:40:29;;;;;;;35.70;22.50;;;;;;;9.01;100.00;98983.95;215580;1302;24365;-76
2022/10/08 02:45:38;;;;;;;38.40;23.20;;;;;;;9.00;100.00;98984.38;215585;1281;22531;-76
2022/10/08 02:50:44;;;;;;;40.50;22.50;;;;;;;8.98;100.00;98980.39;215755;1302;22473;-77
2022/10/08 02:56:10;;;;;;;39.00;23.00;;;;;;;8.97;100.00;98981.93;215797;1280;25410;-77
2022/10/08 03:01:45;;;;;;;39.50;24.00;;;;;;;8.96;100.00;98983.42;215766;1285;22497;-76
2022/10/08 03:06:48;;;;;;;30.90;18.90;;;;;;;8.98;100.00;98984.82;215692;1286;22595;-76
2022/10/08 03:11:53;;;;;;;37.30;23.50;;;;;;;9.03;100.00;98984.59;215467;1274;25341;-76
2022/10/08 03:16:55;;;;;;;38.70;23.40;;;;;;;9.02;100.00;98982.83;215840;1277;22502;-77
2022/10/08 03:21:57;;;;;;;37.40;22.70;;;;;;;9.00;100.00;98984.65;215567;1278;22473;-76
2022/10/08 03:26:58;;;;;;;35.90;20.60;;;;;;;8.99;100.00;98985.50;215833;1277;25305;-77
2022/10/08 03:32:00;;;;;;;32.20;19.00;;;;;;;9.02;100.00;98984.76;215737;1301;22745;-76
2022/10/08 03:37:02;;;;;;;31.70;19.70;;;;;;;9.05;100.00;98978.54;215723;1280;22595;-76
2022/10/08 03:42:04;;;;;;;33.70;20.40;;;;;;;9.05;100.00;98973.58;215804;1303;22918;-77
2022/10/08 03:47:05;;;;;;;31.20;20.30;;;;;;;9.04;100.00;98969.25;215653;1277;22476;-77
2022/10/08 03:52:07;;;;;;;36.80;21.40;;;;;;;9.01;100.00;98968.35;215653;1303;25470;-76
2022/10/08 03:57:09;;;;;;;33.50;20.30;;;;;;;8.98;100.00;98968.58;215682;1288;22567;-76
2022/10/08 04:02:10;;;;;;;34.30;20.80;;;;;;;8.94;100.00;98959.71;215603;1277;22477;-76
2022/10/08 04:07:12;;;;;;;36.30;22.60;;;;;;;8.90;100.00;98957.27;215910;1275;22464;-77
2022/10/08 04:12:14;;;;;;;35.00;21.20;;;;;;;8.85;100.00;98953.33;215393;1304;22616;-75
2022/10/08 04:17:15;;;;;;;39.30;21.70;;;;;;;8.79;100.00;98949.30;215869;1292;25399;-77
2022/10/08 04:22:17;;;;;;;37.50;21.40;;;;;;;8.74;100.00;98950.27;215801;1284;22532;-75
2022/10/08 04:27:19;;;;;;;36.20;20.30;;;;;;;8.71;100.00;98951.13;215777;1288;22478;-76
2022/10/08 04:32:21;;;;;;;34.00;20.00;;;;;;;8.70;100.00;98944.98;215506;1288;22475;-77
2022/10/08 04:37:23;;;;;;;34.30;20.00;;;;;;;8.70;100.00;98945.20;215659;1287;22935;-77
2022/10/08 04:42:25;;;;;;;36.80;20.20;;;;;;;8.71;100.00;98947.55;215667;1282;22513;-76
2022/10/08 04:47:26;;;;;;;36.50;20.90;;;;;;;8.73;100.00;98943.91;215752;1280;22650;-76
2022/10/08 04:52:30;;;;;;;35.20;21.30;;;;;;;8.76;100.00;98944.82;215681;1278;22589;-77
2022/10/08 04:57:32;;;;;;;40.30;22.90;;;;;;;8.82;100.00;98939.98;215759;1287;22466;-76
2022/10/08 05:02:34;;;;;;;32.80;20.80;;;;;;;8.94;100.00;98937.64;215645;1274;22500;-75
2022/10/08 05:07:35;;;;;;;30.10;19.70;;;;;;;9.08;100.00;98938.23;215693;1277;24255;-77
2022/10/08 05:12:37;;;;;;;34.00;20.60;;;;;;;9.24;100.00;98938.05;215751;1278;22567;-75
2022/10/08 05:17:39;;;;;;;32.90;20.40;;;;;;;9.39;100.00;98940.64;215773;1301;25244;-77
2022/10/08 05:22:40;;;;;;;30.10;19.00;;;;;;;9.55;100.00;98944.77;215677;1277;22483;-76
2022/10/08 05:27:42;;;;;;;34.10;21.00;;;;;;;9.71;100.00;98941.45;215546;1303;25436;-77
2022/10/08 05:32:44;;;;;;;35.30;20.30;;;;;;;9.86;100.00;98946.60;215690;1294;22461;-77
2022/10/08 05:37:46;;;;;;;36.40;22.00;;;;;;;10.01;100.00;98949.27;215870;1286;22473;-77
2022/10/08 05:42:47;;;;;;;24.90;17.20;;;;;;;10.15;100.00;98953.92;216000;1280;25417;-76
2022/10/08 05:47:50;;;;;;;20.90;15.90;;;;;;;10.27;100.00;98964.04;215941;1289;24256;-76
2022/10/08 05:52:51;;;;;;;23.10;15.10;;;;;;;10.37;100.00;98960.92;216013;1277;22472;-77
2022/10/08 05:57:53;;;;;;;27.50;17.80;;;;;;;10.45;100.00;98961.39;215555;1302;25486;-77
2022/10/08 06:02:55;;;;;;;26.90;18.10;;;;;;;10.53;100.00;98966.63;215821;1278;22589;-73
2022/10/08 06:07:58;;;;;;;31.20;18.70;;;;;;;10.61;100.00;98967.98;215587;1303;26426;-77
2022/10/08 06:13:00;;;;;;;31.60;19.70;;;;;;;10.70;100.00;98972.61;215713;1280;22513;-75
2022/10/08 06:18:02;;;;;;;29.20;18.20;;;;;;;10.78;100.00;98974.61;215686;1294;22495;-77
2022/10/08 06:23:03;;;;;;;29.30;19.50;;;;;;;10.88;100.00;98977.77;215813;1272;24446;-78
2022/10/08 06:28:05;;;;;;;29.50;19.70;;;;;;;10.99;100.00;98978.78;215776;1302;25312;-77
2022/10/08 06:33:10;;;;;;;34.10;22.60;;;;;;;11.15;100.00;98975.70;215700;1277;22490;-76
2022/10/08 06:38:12;;;;;;;32.20;21.70;;;;;;;11.36;100.00;98979.57;215454;1302;25386;-78
2022/10/08 06:43:16;;;;;;;34.20;21.90;;;;;;;11.58;100.00;98983.25;215918;1277;22525;-76
2022/10/08 06:48:18;;;;;;;27.90;18.10;;;;;;;11.80;100.00;98987.17;216100;1288;22511;-76
2022/10/08 06:53:20;;;;;;;27.20;17.70;;;;;;;11.92;100.00;98991.62;216017;1274;24317;-76
2022/10/08 06:58:22;;;;;;;28.30;20.00;;;;;;;12.06;100.00;98995.08;216056;1274;22559;-75
2022/10/08 07:03:23;;;;;;;24.00;16.00;;;;;;;12.22;100.00;99003.63;216604;1274;24321;-75
2022/10/08 07:08:25;;;;;;;27.10;16.90;;;;;;;12.40;100.00;99005.55;216118;1272;22480;-76
2022/10/08 07:13:28;;;;;;;27.00;16.30;;;;;;;12.57;100.00;99002.69;216137;1273;22498;-76
2022/10/08 07:18:31;;;;;;;25.20;15.10;;;;;;;12.73;100.00;98997.02;216056;1280;22472;-76
2022/10/08 07:23:33;;;;;;;18.60;14.00;;;;;;;12.93;99.95;98988.70;216564;1274;25348;-76
2022/10/08 07:28:37;;;;;;;19.70;13.90;;;;;;;13.07;99.61;98985.73;216270;1278;25446;-77
2022/10/08 07:33:39;;;;;;;22.90;15.20;;;;;;;13.35;99.85;98987.62;216317;1280;22544;-76
2022/10/08 07:38:42;;;;;;;22.80;15.10;;;;;;;13.73;99.78;98983.42;216181;1278;25232;-76
2022/10/08 07:43:43;;;;;;;19.30;14.80;;;;;;;14.00;98.50;98986.23;216360;1275;22473;-76
2022/10/08 07:48:45;;;;;;;19.20;12.90;;;;;;;14.23;98.72;98983.91;215989;1274;22492;-77
2022/10/08 07:53:47;;;;;;;20.30;14.50;;;;;;;14.53;98.41;98985.77;216253;1277;22648;-76
2022/10/08 07:58:49;;;;;;;16.50;12.10;;;;;;;14.75;97.94;98984.28;215942;1302;25377;-76
2022/10/08 08:03:56;;;;;;;17.20;12.30;;;;;;;14.99;97.40;98982.57;216215;1288;22550;-76
2022/10/08 08:08:59;;;;;;;17.60;11.80;;;;;;;15.16;96.49;98985.31;215896;1282;22574;-77
2022/10/08 08:14:02;;;;;;;15.00;11.10;;;;;;;15.38;95.90;98981.91;216318;1278;22631;-75
2022/10/08 08:19:04;;;;;;;14.30;10.90;;;;;;;15.50;94.92;98982.46;216136;1282;24686;-76
2022/10/08 08:24:09;;;;;;;13.80;10.10;;;;;;;15.65;94.68;98987.30;216322;1280;22640;-76
2022/10/08 08:29:14;;;;;;;18.50;12.50;;;;;;;15.79;93.90;98989.42;215881;1303;22595;-76
2022/10/08 08:34:19;;;;;;;18.40;13.60;;;;;;;16.04;94.39;98986.67;216448;1278;22533;-75
2022/10/08 08:39:23;;;;;;;16.60;10.80;;;;;;;16.25;93.03;98989.40;216460;1280;22473;-76
2022/10/08 08:44:33;;;;;;;13.00;10.30;;;;;;;16.40;92.44;98985.34;216384;1274;22458;-75
2022/10/08 08:49:54;;;;;;;12.70;9.70;;;;;;;16.54;91.65;98982.86;216152;1302;24269;-77
2022/10/08 08:54:55;;;;;;;15.40;10.60;;;;;;;16.71;91.32;98979.05;216438;1277;24079;-76
2022/10/08 09:00:05;;;;;;;14.60;8.90;;;;;;;16.83;90.48;98980.37;216109;1284;22474;-75
2022/10/08 09:05:11;;;;;;;;;;;;;;;16.89;89.49;98977.72;216182;1274;22560;-76
2022/10/08 09:10:21;;;;;;;10.70;8.20;;;;;;;16.97;89.24;98976.27;216261;1277;24232;-75
2022/10/08 09:15:31;;;;;;;11.90;7.90;;;;;;;17.07;88.73;98976.30;216101;1277;25386;-76
2022/10/08 09:20:33;;;;;;;;;;;;;;;17.16;87.72;98974.19;216014;1302;25440;-73
2022/10/08 09:25:43;;;;;;;12.10;8.10;;;;;;;17.19;87.24;98975.25;216338;1280;22580;-73
2022/10/08 09:30:45;;;;;;;14.10;9.50;;;;;;;17.28;87.42;98979.20;216138;1277;22573;-73
2022/10/08 09:35:52;;;;;;;11.70;8.30;;;;;;;17.40;86.19;98971.41;216519;1274;22470;-72
2022/10/08 09:41:18;;;;;;;10.00;6.70;;;;;;;17.59;85.96;98973.42;216421;1279;24253;-73
2022/10/08 09:46:28;;;;;;;8.60;7.40;;;;;;;17.70;84.98;98978.33;216092;1279;22527;-73
2022/10/08 09:51:30;;;;;;;9.10;7.70;;;;;;;17.67;84.21;98969.84;215964;1280;24331;-74
2022/10/08 09:56:32;;;;;;;8.50;6.90;;;;;;;17.54;83.40;98968.38;216126;1281;22787;-73
2022/10/08 10:01:43;;;;;;;8.50;7.60;;;;;;;17.39;83.85;98966.88;216061;1291;23771;-73
2022/10/08 10:06:47;;;;;;;11.40;8.00;;;;;;;17.28;83.11;98961.91;216328;1288;22479;-73
2022/10/08 10:11:54;;;;;;;11.90;8.60;;;;;;;17.24;83.54;98961.52;216205;1281;24255;-73
2022/10/08 10:17:07;;;;;;;12.70;8.30;;;;;;;17.22;84.01;98953.77;216192;1280;24332;-73
2022/10/08 10:22:30;;;;;;;15.90;8.40;;;;;;;17.26;83.77;98953.49;216293;1294;24308;-73
2022/10/08 10:27:41;;;;;;;11.40;8.00;;;;;;;17.34;83.58;98953.21;216228;1280;22518;-73
2022/10/08 10:32:52;;;;;;;12.00;8.50;;;;;;;17.48;83.45;98951.27;216116;1282;22737;-74
2022/10/08 10:38:19;;;;;;;9.30;7.50;;;;;;;17.55;82.64;98946.81;216206;1282;22517;-72
2022/10/08 10:43:31;;;;;;;11.30;9.70;;;;;;;17.74;81.25;98938.34;216416;1274;24357;-72
2022/10/08 10:48:33;;;;;;;11.90;8.60;;;;;;;17.96;80.89;98933.74;216349;1281;22480;-72
2022/10/08 10:53:47;;;;;;;9.90;8.20;;;;;;;18.18;80.13;98927.46;216287;1280;22624;-74
2022/10/08 10:59:21;;;;;;;9.40;7.40;;;;;;;18.36;80.31;98919.69;216409;1271;22472;-73
2022/10/08 11:04:45;;;;;;;14.20;9.60;;;;;;;18.55;79.36;98919.40;215542;1274;22547;-74
2022/10/08 11:10:09;;;;;;;11.70;9.40;;;;;;;18.61;78.52;98915.88;215598;1302;22536;-74
2022/10/08 11:15:41;;;;;;;11.80;9.70;;;;;;;18.70;77.81;98911.25;215808;1280;22558;-74
2022/10/08 11:20:56;;;;;;;9.90;7.40;;;;;;;18.78;78.63;98905.98;215713;1301;22548;-74
2022/10/08 11:26:04;;;;;;;12.10;8.00;;;;;;;18.86;78.34;98908.29;215696;1274;22698;-75
2022/10/08 11:31:44;;;;;;;13.40;8.70;;;;;;;18.92;76.73;98901.49;215979;1302;25248;-73
2022/10/08 11:37:10;;;;;;;10.10;7.30;;;;;;;18.84;75.76;98898.39;215856;1297;22483;-74
2022/10/08 11:42:38;;;;;;;13.00;8.20;;;;;;;18.76;76.02;98892.92;215886;1282;22464;-74
2022/10/08 11:47:48;;;;;;;12.40;9.20;;;;;;;18.74;77.14;98894.33;215366;1302;22574;-74
2022/10/08 11:52:52;;;;;;;9.90;8.20;;;;;;;18.76;77.85;98886.33;215881;1280;23936;-74
2022/10/08 11:58:00;;;;;;;15.80;8.70;;;;;;;18.86;77.00;98882.27;215869;1278;22644;-74
2022/10/08 12:03:29;;;;;;;12.00;8.30;;;;;;;18.89;77.11;98880.64;215761;1274;22717;-74
2022/10/08 12:09:00;;;;;;;9.20;7.60;;;;;;;18.87;76.48;98869.17;215838;1303;22469;-74
2022/10/08 12:14:11;;;;;;;9.40;7.70;;;;;;;18.82;75.88;98863.93;215659;1288;24429;-74
2022/10/08 12:19:34;;;;;;;13.20;8.90;;;;;;;18.76;76.56;98858.48;215598;1288;22466;-73
2022/10/08 12:24:36;;;;;;;14.80;8.40;;;;;;;18.71;76.24;98856.15;215653;1280;23599;-74
2022/10/08 12:30:09;;;;;;;12.10;7.90;;;;;;;18.71;77.07;98858.78;215782;1289;25384;-74
2022/10/08 12:35:23;;;;;;;11.00;8.00;;;;;;;18.69;76.08;98861.94;215947;1274;22574;-73
2022/10/08 12:40:46;;;;;;;10.30;8.00;;;;;;;18.59;75.65;98860.31;215990;1302;24476;-74
2022/10/08 12:45:59;;;;;;;18.00;13.50;;;;;;;18.56;76.20;98856.96;215753;1287;22656;-74
2022/10/08 12:51:25;;;;;;;12.20;8.60;;;;;;;18.55;76.67;98859.00;215773;1295;23943;-74
2022/10/08 12:56:29;;;;;;;11.10;8.10;;;;;;;18.57;76.32;98862.31;215663;1274;22873;-74
2022/10/08 13:01:31;;;;;;;9.20;7.50;;;;;;;18.53;76.55;98861.89;215653;1302;22451;-74
2022/10/08 13:06:33;;;;;;;12.90;8.20;;;;;;;18.50;76.88;98855.45;215716;1302;22929;-74
2022/10/08 13:11:35;;;;;;;12.30;7.90;;;;;;;18.51;77.11;98854.77;215744;1274;23159;-74
2022/10/08 13:16:46;;;;;;;13.60;8.10;;;;;;;18.56;77.53;98857.80;215748;1281;25558;-74
2022/10/08 13:22:07;;;;;;;11.30;7.30;;;;;;;18.62;77.49;98854.75;215451;1281;24243;-74
2022/10/08 13:27:25;;;;;;;9.90;7.60;;;;;;;18.66;77.38;98848.95;215748;1274;22565;-74
2022/10/08 13:32:30;;;;;;;10.20;7.30;;;;;;;18.63;77.12;98847.42;215807;1274;22610;-74
2022/10/08 13:37:36;;;;;;;9.00;7.00;;;;;;;18.64;76.99;98849.67;215613;1302;25331;-74
2022/10/08 13:42:46;;;;;;;9.30;6.90;;;;;;;18.54;76.73;98852.87;215606;1274;22601;-74
2022/10/08 13:47:48;;;;;;;13.20;7.40;;;;;;;18.41;76.84;98851.77;215624;1302;25312;-74
2022/10/08 13:52:56;;;;;;;9.70;7.40;;;;;;;18.31;77.40;98854.45;215544;1280;22525;-73
2022/10/08 13:58:01;;;;;;;9.90;6.40;;;;;;;18.26;78.03;98855.16;215523;1297;22594;-74
2022/10/08 14:03:02;;;;;;;10.90;7.50;;;;;;;18.26;78.22;98852.68;215884;1280;22674;-73
2022/10/08 14:08:13;;;;;;;8.70;7.30;;;;;;;18.25;78.35;98853.27;215688;1302;197870;-73
2022/10/08 14:13:15;;;;;;;11.70;7.40;;;;;;;18.18;77.64;98853.03;215651;1274;24338;-74
2022/10/08 14:18:17;;;;;;;9.10;7.20;;;;;;;18.06;77.82;98844.94;215822;1302;22472;-73
2022/10/08 14:23:20;;;;;;;12.50;7.90;;;;;;;17.97;78.16;98839.33;215664;1274;22499;-74
2022/10/08 14:28:22;;;;;;;10.00;7.80;;;;;;;17.93;78.64;98834.47;215588;1302;22978;-73
2022/10/08 14:33:24;;;;;;;11.00;7.50;;;;;;;17.91;78.85;98837.48;215787;1274;24324;-74
2022/10/08 14:38:31;;;;;;;14.70;8.00;;;;;;;17.85;78.71;98835.39;215720;1278;22513;-74
2022/10/08 14:43:33;;;;;;;10.70;7.30;;;;;;;17.74;78.98;98836.19;215656;1288;24251;-74
2022/10/08 14:48:34;;;;;;;16.00;8.90;;;;;;;17.64;79.22;98832.13;215724;1295;22467;-73
2022/10/08 14:53:36;;;;;;;12.30;8.00;;;;;;;17.57;79.67;98836.77;215775;1302;24444;-74
2022/10/08 14:58:38;;;;;;;10.10;7.70;;;;;;;17.59;79.95;98836.85;215563;1302;22478;-74
2022/10/08 15:03:40;;;;;;;12.30;8.50;;;;;;;17.55;79.81;98841.27;215772;1274;23748;-72
2022/10/08 15:08:41;;;;;;;12.60;7.90;;;;;;;17.41;79.91;98841.77;215777;1302;22579;-74
2022/10/08 15:13:43;;;;;;;13.10;7.70;;;;;;;17.22;80.30;98838.23;215656;1279;22589;-74
2022/10/08 15:18:46;;;;;;;12.30;8.30;;;;;;;17.06;80.58;98846.30;215770;1302;25377;-74
2022/10/08 15:23:48;;;;;;;16.50;9.00;;;;;;;16.89;81.01;98843.36;215821;1274;24300;-74
2022/10/08 15:28:51;;;;;;;14.40;8.50;;;;;;;16.79;81.46;98838.54;215694;1301;22558;-74
2022/10/08 15:33:55;;;;;;;20.70;8.50;;;;;;;16.72;81.84;98841.60;215691;1274;22472;-73
2022/10/08 15:39:04;;;;;;;11.80;8.70;;;;;;;16.64;82.10;98838.97;215549;1302;23746;-73
2022/10/08 15:44:09;;;;;;;13.70;8.50;;;;;;;16.54;82.52;98831.02;215713;1282;22562;-74
2022/10/08 15:49:11;;;;;;;11.30;8.40;;;;;;;16.43;82.72;98833.60;215782;1302;22459;-74
2022/10/08 15:54:13;;;;;;;14.90;9.30;;;;;;;16.30;83.08;98835.64;215831;1281;25284;-74
2022/10/08 15:59:15;;;;;;;9.90;7.50;;;;;;;16.14;83.36;98846.33;215544;1302;22484;-74
2022/10/08 16:04:16;;;;;;;10.90;8.60;;;;;;;15.93;83.76;98849.26;215734;1280;22625;-74
2022/10/08 16:09:20;;;;;;;12.90;8.70;;;;;;;15.71;84.19;98862.58;215456;1302;22487;-73
2022/10/08 16:14:24;;;;;;;12.50;8.60;;;;;;;15.51;84.64;98872.28;215528;1274;22474;-74
2022/10/08 16:19:26;;;;;;;10.90;8.50;;;;;;;15.32;85.03;98880.10;215547;1302;22455;-74
2022/10/08 16:24:28;;;;;;;13.30;9.80;;;;;;;15.15;85.44;98889.59;215530;1283;25378;-73
2022/10/08 16:29:30;;;;;;;14.00;9.40;;;;;;;14.99;85.92;98894.85;215743;1301;24482;-73
2022/10/08 16:34:32;;;;;;;15.20;9.20;;;;;;;14.85;86.58;98896.60;215582;1291;22593;-74
2022/10/08 16:39:33;;;;;;;17.50;10.30;;;;;;;14.71;86.84;98897.26;215860;1298;22471;-74
2022/10/08 16:44:35;;;;;;;13.90;9.10;;;;;;;14.60;87.03;98906.33;215715;1281;24886;-74
2022/10/08 16:49:37;;;;;;;16.40;9.80;;;;;;;14.48;87.08;98911.29;215835;1302;22462;-73
2022/10/08 16:54:38;;;;;;;14.90;9.80;;;;;;;14.37;87.35;98913.24;215824;1288;24240;-73
2022/10/08 16:59:40;;;;;;;15.60;10.30;;;;;;;14.29;87.70;98918.30;215385;1302;23830;-74
2022/10/08 17:04:42;;;;;;;15.50;10.10;;;;;;;14.21;87.88;98923.70;215584;1278;23731;-73
2022/10/08 17:09:43;;;;;;;17.00;11.00;;;;;;;14.14;88.40;98930.30;215592;1302;22560;-73
2022/10/08 17:14:45;;;;;;;17.80;10.80;;;;;;;14.09;88.93;98927.47;215717;1288;25349;-73
2022/10/08 17:19:47;;;;;;;15.80;10.30;;;;;;;14.06;89.39;98934.88;215441;1302;22907;-74
2022/10/08 17:24:48;;;;;;;17.80;11.30;;;;;;;14.06;89.90;98939.18;215588;1289;25507;-73
2022/10/08 17:29:50;;;;;;;17.60;12.40;;;;;;;14.04;90.26;98944.80;215806;1302;25533;-74
2022/10/08 17:34:52;;;;;;;20.20;12.70;;;;;;;14.05;90.32;98949.00;215849;1282;25487;-73
2022/10/08 17:39:53;;;;;;;17.40;11.40;;;;;;;14.05;90.19;98945.23;215433;1302;24590;-73
2022/10/08 17:44:55;;;;;;;17.90;12.30;;;;;;;14.02;90.38;98946.54;215717;1280;22480;-73
2022/10/08 17:49:57;;;;;;;22.10;14.90;;;;;;;13.96;90.36;98950.52;215788;1302;25362;-74
2022/10/08 17:54:58;;;;;;;21.90;14.30;;;;;;;13.86;90.51;98956.35;215590;1282;22483;-74
2022/10/08 18:00:00;;;;;;;23.10;14.00;;;;;;;13.74;90.78;98962.80;215795;1301;25437;-74
2022/10/08 18:05:09;;;;;;;17.20;12.50;;;;;;;13.62;90.86;98968.31;215787;1282;24779;-74
2022/10/08 18:10:11;;;;;;;20.40;13.00;;;;;;;13.52;91.20;98978.02;215796;1299;24281;-75
2022/10/08 18:15:12;;;;;;;24.30;15.10;;;;;;;13.44;91.42;98972.15;215760;1274;25263;-74
2022/10/08 18:20:14;;;;;;;18.00;12.40;;;;;;;13.39;91.51;98975.38;215709;1302;24326;-73
2022/10/08 18:25:16;;;;;;;20.40;13.30;;;;;;;13.35;91.92;98979.86;215540;1277;25268;-74
2022/10/08 18:30:17;;;;;;;23.20;13.50;;;;;;;13.32;92.06;98982.09;215870;1302;22546;-74
2022/10/08 18:35:19;;;;;;;20.30;11.60;;;;;;;13.30;92.16;98988.97;215848;1282;24265;-74
2022/10/08 18:40:21;;;;;;;20.40;14.10;;;;;;;13.29;92.44;98989.33;215664;1302;25221;-73
2022/10/08 18:45:23;;;;;;;23.00;13.10;;;;;;;13.28;92.53;98997.85;215895;1282;22593;-73
2022/10/08 18:50:25;;;;;;;22.70;15.00;;;;;;;13.29;92.67;99002.95;215584;1302;25563;-73
2022/10/08 18:55:26;;;;;;;22.80;13.20;;;;;;;13.30;92.67;99005.17;215795;1280;25374;-74
2022/10/08 19:00:28;;;;;;;23.90;13.90;;;;;;;13.29;92.82;99011.75;215698;1302;22494;-74
2022/10/08 19:05:30;;;;;;;24.30;14.80;;;;;;;13.29;92.97;99015.63;215842;1277;22469;-73
2022/10/08 19:10:31;;;;;;;27.80;16.50;;;;;;;13.28;93.04;99027.19;215556;1300;22481;-74
2022/10/08 19:15:37;;;;;;;26.80;16.80;;;;;;;13.26;93.10;99036.25;215649;1285;23275;-74
2022/10/08 19:20:39;;;;;;;29.80;16.30;;;;;;;13.25;93.26;99043.95;215580;1297;23734;-73
2022/10/08 19:25:41;;;;;;;24.80;16.30;;;;;;;13.23;93.43;99044.69;215793;1282;25383;-74
2022/10/08 19:30:42;;;;;;;28.30;18.20;;;;;;;13.21;93.43;99051.24;216038;1303;22485;-74
2022/10/08 19:35:44;;;;;;;32.40;19.50;;;;;;;13.19;93.55;99053.83;215520;1281;25336;-74
2022/10/08 19:40:46;;;;;;;24.50;15.70;;;;;;;13.14;93.67;99062.52;215562;1282;22475;-74
2022/10/08 19:45:47;;;;;;;30.70;18.40;;;;;;;13.11;93.91;99065.37;215763;1284;24382;-74
2022/10/08 19:50:49;;;;;;;27.00;17.80;;;;;;;13.06;93.93;99074.62;215532;1302;25490;-74
2022/10/08 19:55:52;;;;;;;33.60;16.50;;;;;;;13.00;94.07;99081.06;215909;1280;22474;-74
2022/10/08 20:00:58;;;;;;;23.40;14.40;;;;;;;12.96;94.23;99083.13;215505;1288;22478;-74
2022/10/08 20:06:10;;;;;;;21.50;13.90;;;;;;;12.94;94.55;99087.90;215850;1277;25487;-75
2022/10/08 20:11:15;;;;;;;20.80;13.10;;;;;;;12.92;94.61;99093.04;215736;1278;25335;-74
2022/10/08 20:16:23;;;;;;;20.60;13.30;;;;;;;12.90;94.83;99096.84;215621;1274;22560;-73
2022/10/08 20:21:29;;;;;;;21.30;13.90;;;;;;;12.90;95.02;99106.41;215428;1302;22589;-74
2022/10/08 20:26:36;;;;;;;21.70;14.50;;;;;;;12.88;95.15;99106.77;215739;1280;22495;-74
2022/10/08 20:31:41;;;;;;;24.30;15.00;;;;;;;12.86;95.12;99107.65;215744;1303;25330;-75
2022/10/08 20:36:45;;;;;;;23.20;15.50;;;;;;;12.84;95.18;99110.80;215611;1281;22423;-74
2022/10/08 20:41:47;;;;;;;30.00;16.40;;;;;;;12.82;95.26;99113.69;215667;1279;24243;-74
2022/10/08 20:46:50;;;;;;;28.30;15.60;;;;;;;12.81;95.30;99115.15;215941;1288;25096;-74
2022/10/08 20:51:51;;;;;;;21.50;13.80;;;;;;;12.80;95.24;99116.09;215698;1290;25218;-74
2022/10/08 20:56:53;;;;;;;23.40;13.70;;;;;;;12.80;95.09;99127.11;215595;1281;22527;-74
2022/10/08 21:01:55;;;;;;;20.60;12.70;;;;;;;12.79;94.92;99139.30;215784;1302;23909;-74
2022/10/08 21:06:57;;;;;;;20.80;12.30;;;;;;;12.78;94.72;99145.59;215778;1282;22562;-74
2022/10/08 21:11:59;;;;;;;18.10;10.40;;;;;;;12.77;94.40;99153.24;215860;1296;25535;-73
2022/10/08 21:17:00;;;;;;;17.40;9.90;;;;;;;12.75;94.14;99156.55;215688;1282;25342;-74
2022/10/08 21:22:02;;;;;;;14.30;8.20;;;;;;;12.74;93.77;99163.18;215794;1281;23490;-74
2022/10/08 21:27:04;;;;;;;13.10;7.20;;;;;;;12.75;93.37;99164.09;215741;1277;23075;-74
2022/10/08 21:32:05;;;;;;;8.90;6.50;;;;;;;12.78;93.00;99170.68;215610;1302;22499;-74
2022/10/08 21:37:07;;;;;;;8.00;5.40;;;;;;;12.82;92.60;99180.52;216038;1274;22470;-74
2022/10/08 21:42:14;;;;;;;9.50;5.20;;;;;;;12.87;92.17;99186.37;215953;1277;22469;-73
2022/10/08 21:47:16;;;;;;;5.80;4.50;;;;;;;12.91;91.81;99188.55;215710;1277;25326;-73
2022/10/08 21:52:17;;;;;;;9.50;4.40;;;;;;;12.95;91.48;99194.47;215698;1303;22543;-73
2022/10/08 21:57:19;;;;;;;7.50;3.60;;;;;;;12.98;91.10;99193.18;215850;1278;24250;-74
2022/10/08 22:02:21;;;;;;;5.90;3.60;;;;;;;12.99;90.56;99204.40;215753;1280;23279;-73
2022/10/08 22:07:22;;;;;;;6.40;3.10;;;;;;;13.01;90.05;99211.36;215826;1287;25326;-73
2022/10/08 22:12:24;;;;;;;3.40;2.40;;;;;;;13.02;89.53;99217.32;215817;1302;24334;-74
2022/10/08 22:17:26;;;;;;;6.20;2.80;;;;;;;13.02;88.86;99215.55;215960;1281;22599;-73
2022/10/08 22:22:27;;;;;;;5.10;2.30;;;;;;;13.00;88.32;99226.88;216001;1277;24315;-74
2022/10/08 22:27:29;;;;;;;4.40;2.80;;;;;;;12.94;88.03;99237.77;215790;1282;22537;-74
2022/10/08 22:32:30;;;;;;;5.40;2.40;;;;;;;12.83;88.23;99242.99;215688;1281;24257;-73
2022/10/08 22:37:32;;;;;;;4.70;2.50;;;;;;;12.67;88.56;99242.27;215700;1280;25262;-74
2022/10/08 22:42:34;;;;;;;7.30;3.70;;;;;;;12.49;88.81;99245.30;215678;1302;22478;-74
2022/10/08 22:47:35;;;;;;;5.00;2.60;;;;;;;12.32;89.17;99239.45;215743;1289;25366;-73
2022/10/08 22:52:37;;;;;;;5.10;3.00;;;;;;;12.19;89.54;99240.09;215724;1285;22477;-73
2022/10/08 22:57:39;;;;;;;4.40;2.90;;;;;;;12.08;89.72;99245.09;215836;1289;22656;-74
2022/10/08 23:02:41;;;;;;;6.40;2.70;;;;;;;12.03;89.97;99255.15;215821;1281;22469;-74
2022/10/08 23:07:42;;;;;;;5.00;2.10;;;;;;;11.97;90.00;99262.19;215556;1301;23284;-73
2022/10/08 23:12:44;;;;;;;3.90;2.00;;;;;;;11.93;89.88;99267.20;215838;1285;22555;-73
2022/10/08 23:17:46;;;;;;;4.90;2.00;;;;;;;11.90;89.99;99272.56;215759;1289;22599;-73